Time;durP1;ratioP1;P1;durP2;ratioP2;P2;SDS_P1;SDS_P2;PMS_P1;PMS_P2;Temp;Humidity;BMP_temperature;BMP_pressure;BME280_temperature;BME280_humidity;BME280_pressure;Samples;Min_cycle;Max_cycle;Signal;HPM_P1;HPM_P2
2022/04/02 00:02:16;;;;;;;9.00;6.57;;;;;;;-1.78;81.08;101526.28;4975410;28;20407;-59
2022/04/02 00:04:41;;;;;;;6.93;6.13;;;;;;;-1.74;80.38;101527.84;4975844;28;20077;-52
2022/04/02 00:07:07;;;;;;;8.37;7.03;;;;;;;-1.70;80.15;101523.38;4976290;28;20399;-57
2022/04/02 00:09:33;;;;;;;8.50;6.13;;;;;;;-1.69;80.03;101517.22;4975814;28;20068;-56
2022/04/02 00:11:59;;;;;;;8.80;5.63;;;;;;;-1.73;79.98;101508.69;4974730;28;20035;-53
2022/04/02 00:14:25;;;;;;;8.15;6.85;;;;;;;-1.71;80.29;101511.22;4975509;28;20129;-53
2022/04/02 00:16:51;;;;;;;9.53;7.67;;;;;;;-1.83;80.60;101502.13;4975435;28;20177;-56
2022/04/02 00:19:17;;;;;;;10.60;7.77;;;;;;;-1.77;80.72;101517.53;4975202;28;20375;-54
2022/04/02 00:21:43;;;;;;;11.67;6.93;;;;;;;-1.76;81.11;101516.63;4975689;28;20266;-54
2022/04/02 00:24:08;;;;;;;8.10;6.93;;;;;;;-1.88;81.52;101518.00;4975442;28;20034;-54
2022/04/02 00:26:34;;;;;;;8.70;6.40;;;;;;;-1.92;81.78;101524.25;4975203;28;20486;-55
2022/04/02 00:28:59;;;;;;;8.33;6.87;;;;;;;-2.06;81.97;101510.06;4975265;28;20514;-54
2022/04/02 00:31:29;;;;;;;10.27;7.13;;;;;;;-2.24;82.04;101490.81;4975091;28;20073;-53
2022/04/02 00:33:55;;;;;;;9.75;7.43;;;;;;;-2.20;82.80;101503.69;4974922;28;20498;-53
2022/04/02 00:36:22;;;;;;;11.67;7.43;;;;;;;-2.12;82.05;101505.13;4974878;28;20053;-51
2022/04/02 00:38:47;;;;;;;9.68;7.03;;;;;;;-2.08;81.87;101506.69;4975329;28;20133;-53
2022/04/02 00:41:14;;;;;;;8.13;6.67;;;;;;;-2.07;81.79;101509.22;4975223;28;20035;-51
2022/04/02 00:43:53;;;;;;;9.27;7.50;;;;;;;-2.31;81.84;101458.94;4976338;28;20077;-55
2022/04/02 00:46:22;;;;;;;7.45;6.13;;;;;;;-2.02;81.33;101511.66;4976455;28;20110;-50
2022/04/02 00:48:49;;;;;;;9.60;7.07;;;;;;;-2.02;82.06;101509.91;4975751;28;20051;-52
2022/04/02 00:51:16;;;;;;;10.05;7.68;;;;;;;-1.98;82.41;101515.84;4974878;28;20031;-53
2022/04/02 00:53:48;;;;;;;9.95;7.30;;;;;;;-1.95;81.99;101502.66;4975050;28;20076;-51
2022/04/02 00:56:14;;;;;;;10.50;7.38;;;;;;;-1.87;81.00;101505.78;4974533;28;20049;-53
2022/04/02 00:58:40;;;;;;;8.93;7.40;;;;;;;-1.88;81.10;101509.31;4974460;28;20042;-57
2022/04/02 01:01:06;;;;;;;13.10;7.97;;;;;;;-1.99;81.90;101495.88;4974929;28;20074;-54
2022/04/02 01:03:34;;;;;;;8.90;7.43;;;;;;;-1.98;81.95;101498.44;4976279;28;20125;-55
2022/04/02 01:06:00;;;;;;;9.27;7.68;;;;;;;-1.99;81.95;101501.09;4975486;28;20043;-53
2022/04/02 01:08:26;;;;;;;9.45;7.70;;;;;;;-2.01;82.32;101498.56;4976032;28;20113;-53
2022/04/02 01:10:55;;;;;;;14.10;8.40;;;;;;;-2.06;82.00;101505.69;4974220;28;20086;-54
2022/04/02 01:13:22;;;;;;;9.45;7.43;;;;;;;-2.04;82.10;101500.41;4974329;28;20042;-56
2022/04/02 01:15:50;;;;;;;9.20;6.93;;;;;;;-2.03;81.76;101502.13;4974201;28;20043;-54
2022/04/02 01:18:15;;;;;;;14.07;8.77;;;;;;;-2.00;82.38;101499.41;4974417;28;20038;-56
2022/04/02 01:20:41;;;;;;;10.43;7.73;;;;;;;-2.09;82.48;101491.94;4974208;28;20621;-55
2022/04/02 01:23:08;;;;;;;8.47;6.93;;;;;;;-2.13;81.63;101492.97;4974160;28;20041;-55
2022/04/02 01:25:34;;;;;;;9.88;7.28;;;;;;;-2.14;81.66;101483.47;4974492;28;20042;-58
2022/04/02 01:28:00;;;;;;;7.60;6.77;;;;;;;-2.15;80.84;101500.03;4974388;28;20046;-56
2022/04/02 01:30:26;;;;;;;7.68;6.55;;;;;;;-2.21;81.55;101485.47;4974243;28;20125;-55
2022/04/02 01:32:52;;;;;;;10.85;7.45;;;;;;;-2.24;81.31;101481.25;4973897;28;20101;-52
2022/04/02 01:35:21;;;;;;;8.00;6.50;;;;;;;-2.26;80.82;101482.22;4974023;28;20035;-51
2022/04/02 01:37:46;;;;;;;9.68;7.28;;;;;;;-2.38;80.67;101483.56;4974758;28;20066;-56
2022/04/02 01:40:12;;;;;;;10.87;7.33;;;;;;;-2.40;81.05;101480.16;4973696;28;20051;-56
2022/04/02 01:42:38;;;;;;;8.20;6.83;;;;;;;-2.38;81.05;101473.13;4973866;28;20133;-54
2022/04/02 01:45:06;;;;;;;10.73;7.33;;;;;;;-2.30;81.34;101484.09;4973681;28;20113;-52
2022/04/02 01:47:32;;;;;;;9.00;6.68;;;;;;;-2.27;80.34;101473.53;4974011;28;20064;-56
2022/04/02 01:49:58;;;;;;;10.00;6.80;;;;;;;-2.27;80.68;101470.09;4973799;28;20555;-54
2022/04/02 01:52:23;;;;;;;10.33;5.83;;;;;;;-2.24;80.91;101475.16;4973789;28;20489;-53
2022/04/02 01:54:49;;;;;;;7.80;7.00;;;;;;;-2.27;80.95;101472.69;4973888;28;20058;-53
2022/04/02 01:57:16;;;;;;;8.53;6.83;;;;;;;-2.32;81.19;101470.25;4974023;28;20557;-54
2022/04/02 01:59:44;;;;;;;8.40;6.00;;;;;;;-2.32;81.33;101467.63;4956397;28;20035;-56
2022/04/02 02:02:13;;;;;;;7.63;6.28;;;;;;;-2.25;81.22;101474.31;4973796;28;20046;-56
2022/04/02 02:04:39;;;;;;;9.25;6.70;;;;;;;-2.22;80.75;101463.75;4973491;28;20230;-58
2022/04/02 02:07:06;;;;;;;10.83;7.07;;;;;;;-2.29;79.55;101464.94;4973322;28;20034;-49
2022/04/02 02:09:32;;;;;;;10.85;6.53;;;;;;;-2.28;80.21;101469.25;4973810;28;20101;-53
2022/04/02 02:11:58;;;;;;;12.77;8.35;;;;;;;-2.31;80.02;101469.38;4973481;28;20383;-52
2022/04/02 02:14:23;;;;;;;7.17;6.23;;;;;;;-2.38;80.00;101460.06;4973315;28;20101;-53
2022/04/02 02:16:50;;;;;;;7.97;6.90;;;;;;;-2.37;79.68;101463.53;4973306;28;20053;-56
2022/04/02 02:19:15;;;;;;;8.43;6.25;;;;;;;-2.34;80.00;101461.63;4973214;28;20082;-53
2022/04/02 02:21:41;;;;;;;9.00;7.27;;;;;;;-2.35;79.03;101466.91;4973298;28;20043;-55
2022/04/02 02:24:08;;;;;;;9.35;6.78;;;;;;;-2.34;79.31;101466.84;4973896;28;20134;-56
2022/04/02 02:26:34;;;;;;;10.27;6.90;;;;;;;-2.33;78.80;101462.47;4973501;28;20134;-54
2022/04/02 02:29:00;;;;;;;8.10;5.95;;;;;;;-2.34;78.80;101459.03;4973129;28;20042;-52
2022/04/02 02:31:26;;;;;;;7.15;6.18;;;;;;;-2.32;79.47;101459.81;4973267;28;20498;-51
2022/04/02 02:36:35;;;;;;;8.60;7.28;;;;;;;-2.53;78.31;101417.22;4979250;28;20442;-54
2022/04/02 02:39:01;;;;;;;9.10;6.50;;;;;;;-2.26;78.08;101463.94;4980538;28;20038;-58
2022/04/02 02:41:27;;;;;;;6.60;5.90;;;;;;;-2.25;78.43;101461.28;4979636;28;20247;-55
2022/04/02 02:43:52;;;;;;;6.03;5.43;;;;;;;-2.25;78.04;101458.66;4979521;28;20395;-54
2022/04/02 02:46:19;;;;;;;7.93;5.23;;;;;;;-2.22;77.61;101452.47;4979239;28;20090;-55
2022/04/02 02:48:45;;;;;;;8.27;6.50;;;;;;;-2.24;77.65;101451.69;4979429;28;20047;-56
2022/04/02 02:51:11;;;;;;;13.10;5.95;;;;;;;-2.14;77.26;101449.53;4979442;28;20413;-55
2022/04/02 02:53:37;;;;;;;7.53;5.57;;;;;;;-2.14;77.59;101454.75;4980810;28;20121;-53
2022/04/02 02:56:03;;;;;;;10.30;5.67;;;;;;;-2.07;77.25;101453.56;4979501;28;20483;-58
2022/04/02 02:58:28;;;;;;;7.07;5.40;;;;;;;-1.99;77.58;101459.34;4979595;28;20030;-53
2022/04/02 03:00:54;;;;;;;7.17;5.37;;;;;;;-1.98;76.65;101461.88;4979236;28;20046;-54
2022/04/02 03:03:22;;;;;;;7.43;5.68;;;;;;;-1.94;76.66;101457.38;4961952;28;20035;-52
2022/04/02 03:05:48;;;;;;;8.07;5.57;;;;;;;-1.92;76.57;101455.53;4962765;28;20065;-57
2022/04/02 03:08:14;;;;;;;7.10;5.65;;;;;;;-1.99;76.61;101444.53;4980258;28;20034;-56
2022/04/02 03:10:40;;;;;;;8.57;6.03;;;;;;;-2.01;76.18;101462.00;4961945;28;20037;-55
2022/04/02 03:13:06;;;;;;;5.50;4.90;;;;;;;-2.10;76.55;101456.31;4979074;28;20070;-55
2022/04/02 03:15:32;;;;;;;6.23;5.63;;;;;;;-2.10;76.81;101451.94;4979178;28;20066;-57
2022/04/02 03:18:08;;;;;;;7.03;4.93;;;;;;;-2.06;77.03;101450.91;4978973;28;20043;-53
2022/04/02 03:20:35;;;;;;;6.03;5.13;;;;;;;-2.01;76.33;101462.00;4961745;28;20043;-55
2022/04/02 03:23:02;;;;;;;5.95;5.15;;;;;;;-1.98;76.55;101450.59;4979787;28;20061;-54
2022/04/02 03:25:28;;;;;;;7.05;5.75;;;;;;;-1.95;76.14;101455.69;4979155;28;20461;-54
2022/04/02 03:27:54;;;;;;;9.27;5.40;;;;;;;-1.94;75.51;101457.38;4979262;28;20043;-54
2022/04/02 03:30:22;;;;;;;15.07;5.77;;;;;;;-1.94;75.22;101453.00;4978996;28;20046;-53
2022/04/02 03:32:49;;;;;;;5.78;5.13;;;;;;;-1.88;75.36;101457.09;4979183;28;20039;-55
2022/04/02 03:35:15;;;;;;;7.30;4.57;;;;;;;-1.85;75.33;101456.13;4979133;28;20030;-54
2022/04/02 03:37:46;;;;;;;11.73;4.57;;;;;;;-1.81;74.70;101466.34;4979322;28;20031;-56
2022/04/02 03:40:17;;;;;;;4.95;4.15;;;;;;;-1.79;74.84;101456.69;4979342;28;20035;-55
2022/04/02 03:42:44;;;;;;;6.68;5.15;;;;;;;-1.77;74.54;101460.09;4979148;28;20041;-56
2022/04/02 03:45:14;;;;;;;5.82;4.95;;;;;;;-1.82;74.90;101453.38;4978884;28;20059;-51
2022/04/02 03:47:40;;;;;;;6.97;4.93;;;;;;;-1.90;74.93;101451.09;4975611;28;20063;-56
2022/04/02 03:50:06;;;;;;;7.65;5.45;;;;;;;-1.92;75.27;101447.72;4976035;28;20096;-58
2022/04/02 03:52:32;;;;;;;5.47;4.60;;;;;;;-1.90;74.92;101451.94;4976454;28;20051;-56
2022/04/02 03:54:58;;;;;;;7.30;5.00;;;;;;;-1.87;75.64;101462.25;4976769;28;20034;-52
2022/04/02 03:57:23;;;;;;;8.00;5.13;;;;;;;-1.79;75.00;101455.84;4975661;28;20170;-55
2022/04/02 03:59:49;;;;;;;6.07;5.17;;;;;;;-1.78;74.41;101458.38;4975509;28;20066;-53
2022/04/02 04:02:15;;;;;;;5.87;4.53;;;;;;;-1.74;74.79;101449.50;4976159;28;20410;-51
2022/04/02 04:04:41;;;;;;;7.45;5.72;;;;;;;-1.71;74.52;101448.53;4977146;28;20130;-56
2022/04/02 04:07:08;;;;;;;7.10;5.47;;;;;;;-1.67;74.28;101445.72;4976817;28;20043;-55
2022/04/02 04:09:34;;;;;;;6.63;4.72;;;;;;;-1.60;74.24;101452.38;4977889;28;20043;-55
2022/04/02 04:12:00;;;;;;;8.07;5.05;;;;;;;-1.66;73.77;101449.19;4975760;28;20046;-54
2022/04/02 04:14:26;;;;;;;6.47;4.80;;;;;;;-1.72;73.80;101447.69;4975673;28;20086;-56
2022/04/02 04:16:52;;;;;;;10.30;6.10;;;;;;;-1.63;73.81;101452.50;4975716;28;20138;-54
2022/04/02 04:19:19;;;;;;;8.18;5.15;;;;;;;-1.53;73.27;101452.09;4975237;28;20055;-57
2022/04/02 04:21:44;;;;;;;5.68;4.53;;;;;;;-1.50;72.69;101446.72;4976066;28;20035;-51
2022/04/02 04:24:10;;;;;;;5.97;4.73;;;;;;;-1.50;72.37;101438.88;4976291;28;20513;-51
2022/04/02 04:26:37;;;;;;;7.07;5.33;;;;;;;-1.51;72.25;101445.03;4976710;28;20038;-50
2022/04/02 04:29:03;;;;;;;8.50;5.57;;;;;;;-1.53;72.16;101446.88;4976896;28;20109;-57
2022/04/02 04:31:29;;;;;;;5.65;5.10;;;;;;;-1.49;72.24;101448.41;4977177;28;20038;-54
2022/04/02 04:33:55;;;;;;;7.93;5.07;;;;;;;-1.46;71.68;101445.66;4976953;28;20039;-51
2022/04/02 04:36:24;;;;;;;7.67;4.40;;;;;;;-1.37;71.58;101442.66;4976582;28;20044;-51
2022/04/02 04:38:51;;;;;;;6.70;4.32;;;;;;;-1.30;71.08;101444.06;4975786;28;20309;-54
2022/04/02 04:41:17;;;;;;;8.57;5.20;;;;;;;-1.29;71.08;101445.75;4974967;28;20038;-54
2022/04/02 04:43:44;;;;;;;9.32;6.00;;;;;;;-1.33;71.63;101444.22;4975196;28;20047;-54
2022/04/02 04:46:12;;;;;;;8.15;4.53;;;;;;;-1.46;71.20;101437.81;4975254;28;20101;-55
2022/04/02 04:48:37;;;;;;;5.78;3.85;;;;;;;-1.38;71.06;101451.41;4975174;28;20433;-51
2022/04/02 04:51:04;;;;;;;7.73;5.03;;;;;;;-1.34;70.51;101452.97;4975675;28;20035;-51
2022/04/02 04:53:29;;;;;;;6.85;4.20;;;;;;;-1.28;70.19;101457.91;4957686;28;20042;-52
2022/04/02 04:55:55;;;;;;;5.20;4.67;;;;;;;-1.24;69.59;101456.84;4957431;28;20042;-55
2022/04/02 04:58:21;;;;;;;9.47;4.80;;;;;;;-1.25;69.78;101442.94;4974557;28;20035;-54
2022/04/02 05:00:47;;;;;;;19.37;5.17;;;;;;;-1.24;68.72;101454.22;4975457;28;20121;-55
2022/04/02 05:03:13;;;;;;;7.65;4.53;;;;;;;-1.21;68.86;101456.69;4975708;28;20104;-51
2022/04/02 05:05:39;;;;;;;6.18;3.80;;;;;;;-1.17;69.66;101450.41;4977275;28;20030;-52
2022/04/02 05:08:06;;;;;;;5.97;4.07;;;;;;;-1.17;68.82;101453.03;4958815;28;20514;-50
2022/04/02 05:10:33;;;;;;;6.93;4.47;;;;;;;-1.17;68.91;101447.78;4975390;28;20781;-50
2022/04/02 05:12:59;;;;;;;4.78;4.20;;;;;;;-1.12;67.98;101448.47;4974773;28;20556;-54
2022/04/02 05:15:24;;;;;;;5.70;3.87;;;;;;;-1.08;68.34;101442.16;4974756;28;20034;-53
2022/04/02 05:17:50;;;;;;;10.67;3.93;;;;;;;-0.97;68.27;101442.50;4974583;28;20121;-50
2022/04/02 05:20:18;;;;;;;6.68;3.83;;;;;;;-0.86;67.41;101460.31;4974362;28;20042;-52
2022/04/02 05:22:44;;;;;;;4.77;3.87;;;;;;;-0.84;67.53;101452.38;4974231;28;20026;-51
2022/04/02 05:25:10;;;;;;;8.17;4.67;;;;;;;-0.84;67.51;101449.78;4974235;28;20041;-53
2022/04/02 05:27:37;;;;;;;6.53;4.07;;;;;;;-0.72;67.38;101449.19;4974036;28;20269;-53
2022/04/02 05:30:06;;;;;;;6.40;3.83;;;;;;;-0.70;66.97;101436.88;4974236;28;20263;-60
2022/04/02 05:32:31;;;;;;;10.33;6.10;;;;;;;-0.53;65.96;101441.28;4956678;28;20495;-68
2022/04/02 05:34:58;;;;;;;8.43;4.40;;;;;;;-0.56;65.29;101437.06;4974292;28;20290;-64
2022/04/02 05:37:24;;;;;;;8.13;4.70;;;;;;;-0.43;65.01;101439.91;4974329;28;20509;-63
2022/04/02 05:39:50;;;;;;;7.77;4.07;;;;;;;-0.35;64.66;101430.75;4975191;28;20038;-63
2022/04/02 05:42:16;;;;;;;8.90;4.40;;;;;;;-0.28;64.70;101448.78;4974479;28;20281;-64
2022/04/02 05:44:42;;;;;;;7.63;4.67;;;;;;;-0.33;65.01;101434.13;4973828;28;20381;-61
2022/04/02 05:47:09;;;;;;;16.73;5.37;;;;;;;-0.36;65.44;101431.66;4957209;28;20381;-61
2022/04/02 05:49:36;;;;;;;5.07;4.00;;;;;;;-0.33;65.28;101436.75;4973953;28;20046;-57
2022/04/02 05:52:04;;;;;;;8.50;3.90;;;;;;;-0.25;64.64;101441.63;4973585;28;20266;-60
2022/04/02 05:54:31;;;;;;;9.50;4.13;;;;;;;-0.21;64.46;101435.31;4973399;28;20364;-63
2022/04/02 05:56:57;;;;;;;10.17;4.73;;;;;;;-0.22;64.71;101431.00;4973779;28;20282;-61
2022/04/02 05:59:23;;;;;;;11.17;4.40;;;;;;;-0.23;65.56;101429.31;4973624;28;20722;-61
2022/04/02 06:08:18;;;;;;;8.87;4.80;;;;;;;-0.37;65.81;101424.75;4992590;28;20476;-63
2022/04/02 06:10:45;;;;;;;17.05;5.13;;;;;;;-0.66;66.72;101404.41;4991755;28;20317;-64
2022/04/02 06:13:11;;;;;;;7.07;4.03;;;;;;;-0.59;67.12;101426.72;4993891;28;20046;-60
2022/04/02 06:15:37;;;;;;;14.43;6.07;;;;;;;-0.57;66.41;101424.06;4975168;28;20337;-61
2022/04/02 06:18:03;;;;;;;15.10;4.60;;;;;;;-0.64;66.80;101405.16;4993149;28;20759;-60
2022/04/02 06:20:30;;;;;;;6.33;4.10;;;;;;;-0.51;67.06;101408.91;4992566;28;20830;-61
2022/04/02 06:22:55;;;;;;;11.33;5.23;;;;;;;-0.43;66.47;101425.06;4992557;28;20269;-61
2022/04/02 06:25:21;;;;;;;11.17;5.60;;;;;;;-0.43;66.62;101425.06;4992708;28;20056;-63
2022/04/02 06:27:47;;;;;;;6.10;4.33;;;;;;;-0.42;66.11;101424.13;4993764;28;20084;-62
2022/04/02 06:30:21;;;;;;;15.93;4.63;;;;;;;-0.26;66.46;101434.69;4992276;28;20517;-62
2022/04/02 06:32:46;;;;;;;13.07;6.80;;;;;;;-0.30;66.00;101422.66;4975260;28;20293;-60
2022/04/02 06:35:12;;;;;;;12.20;4.97;;;;;;;-0.29;65.08;101424.34;4992502;28;20266;-59
2022/04/02 06:37:40;;;;;;;10.37;4.07;;;;;;;-0.27;63.96;101421.69;4992698;28;20041;-60
2022/04/02 06:40:09;;;;;;;12.57;4.50;;;;;;;-0.25;63.34;101388.44;4992622;28;20046;-61
2022/04/02 06:42:36;;;;;;;11.60;5.07;;;;;;;-0.14;63.36;101407.88;4993405;28;20083;-63
2022/04/02 06:45:03;;;;;;;14.33;7.07;;;;;;;-0.08;62.75;101425.03;4992123;28;20297;-64
2022/04/02 06:47:30;;;;;;;13.40;5.70;;;;;;;-0.20;62.09;101407.34;4992735;28;20327;-62
2022/04/02 06:49:56;;;;;;;7.13;5.03;;;;;;;-0.21;61.58;101405.66;4992232;28;20277;-61
2022/04/02 06:52:22;;;;;;;16.90;4.87;;;;;;;-0.16;60.82;101403.66;4992857;28;20281;-63
2022/04/02 06:54:48;;;;;;;9.67;4.03;;;;;;;-0.08;60.67;101411.94;4992191;28;20276;-62
2022/04/02 06:57:18;;;;;;;9.97;4.00;;;;;;;-0.01;60.98;101408.09;4959447;28;20035;-62
2022/04/02 06:59:43;;;;;;;5.27;3.37;;;;;;;-0.01;59.50;101406.31;4974960;28;20515;-63
2022/04/02 07:02:09;;;;;;;11.30;3.70;;;;;;;-0.10;59.09;101392.84;4959068;28;20266;-63
2022/04/02 07:04:34;;;;;;;6.73;4.47;;;;;;;-0.17;58.82;101396.72;4975080;28;20587;-62
2022/04/02 07:07:02;;;;;;;8.73;4.00;;;;;;;-0.12;59.35;101399.94;4992776;28;20053;-62
2022/04/02 07:09:28;;;;;;;7.90;3.50;;;;;;;-0.06;57.31;101400.47;4992645;28;20042;-63
2022/04/02 07:11:55;;;;;;;6.57;3.63;;;;;;;0.06;58.38;101396.41;4992604;28;20277;-62
2022/04/02 07:14:20;;;;;;;8.80;4.13;;;;;;;0.15;58.14;101381.97;4976361;28;20034;-63
2022/04/02 07:16:46;;;;;;;9.83;4.60;;;;;;;0.18;57.78;101381.78;4974826;28;20269;-61
2022/04/02 07:19:13;;;;;;;9.63;4.00;;;;;;;0.22;58.34;101389.41;4992054;28;20086;-64
2022/04/02 07:21:40;;;;;;;7.30;3.47;;;;;;;0.27;56.01;101386.53;4993866;28;20046;-62
2022/04/02 07:24:06;;;;;;;12.53;4.13;;;;;;;0.19;56.02;101376.47;4995681;28;20316;-63
2022/04/02 07:26:32;;;;;;;9.83;3.80;;;;;;;0.34;56.50;101381.84;4995827;28;20262;-63
2022/04/02 07:28:59;;;;;;;7.97;4.23;;;;;;;0.51;56.35;101382.59;4978393;28;20042;-61
2022/04/02 07:31:25;;;;;;;6.77;4.17;;;;;;;0.60;56.08;101384.75;4978626;28;20324;-63
2022/04/02 07:33:50;;;;;;;10.00;4.43;;;;;;;0.60;56.34;101386.53;4995960;28;20266;-63
2022/04/02 07:36:19;;;;;;;8.17;4.00;;;;;;;0.52;56.51;101371.19;4995692;28;20026;-62
2022/04/02 07:39:11;;;;;;;7.00;3.70;;;;;;;0.48;57.22;101371.44;4995612;28;20046;-62
2022/04/02 07:41:53;;;;;;;8.00;4.73;;;;;;;0.48;57.63;101379.31;4995755;28;20749;-63
2022/04/02 07:44:33;;;;;;;9.50;4.27;;;;;;;0.48;57.76;101374.06;4996103;28;20324;-61
2022/04/02 07:46:59;;;;;;;8.30;4.33;;;;;;;0.53;57.02;101372.03;4995392;28;20253;-62
2022/04/02 07:49:28;;;;;;;7.60;4.07;;;;;;;0.59;57.37;101361.25;4994950;28;20274;-62
2022/04/02 07:51:55;;;;;;;14.43;5.00;;;;;;;0.66;56.70;101361.75;4995072;28;20344;-63
2022/04/02 07:54:27;;;;;;;7.90;3.87;;;;;;;0.68;56.19;101355.50;4995702;28;20384;-61
2022/04/02 07:57:02;;;;;;;9.27;4.37;;;;;;;0.83;56.53;101359.88;4978075;28;20265;-62
2022/04/02 07:59:34;;;;;;;5.77;3.73;;;;;;;0.56;55.99;101299.31;4993859;28;20346;-61
2022/04/02 08:02:01;;;;;;;11.90;3.90;;;;;;;0.84;53.65;101348.44;4994075;28;20775;-62
2022/04/02 08:04:28;;;;;;;9.70;4.20;;;;;;;0.88;54.00;101357.00;4977460;28;20354;-61
2022/04/02 08:06:54;;;;;;;11.57;3.80;;;;;;;0.99;53.30;101349.38;4976931;28;20294;-61
2022/04/02 08:09:21;;;;;;;11.20;3.17;;;;;;;1.03;51.51;101350.03;4994498;28;20420;-61
2022/04/02 08:11:50;;;;;;;6.63;3.60;;;;;;;1.06;51.28;101357.72;4994819;28;20297;-63
2022/04/02 08:14:18;;;;;;;5.63;2.95;;;;;;;0.78;50.74;101296.34;4995343;28;20278;-62
2022/04/02 08:16:44;;;;;;;7.03;3.60;;;;;;;1.18;50.21;101351.81;4994637;28;20081;-61
2022/04/02 08:19:11;;;;;;;9.93;4.27;;;;;;;1.07;50.92;101335.81;4960897;28;20671;-62
2022/04/02 08:21:37;;;;;;;6.73;3.10;;;;;;;1.12;50.46;101360.00;4994508;28;20430;-61
2022/04/02 08:24:03;;;;;;;5.70;3.13;;;;;;;1.12;49.94;101360.00;4995765;28;20385;-62
2022/04/02 08:26:50;;;;;;;9.63;4.30;;;;;;;1.17;50.18;101350.09;4997012;28;20289;-60
2022/04/02 08:29:37;;;;;;;5.00;3.17;;;;;;;1.29;49.66;101348.53;4997891;28;20030;-62
2022/04/02 08:32:13;;;;;;;7.73;3.57;;;;;;;1.31;49.59;101349.31;4978987;28;20269;-62
2022/04/02 08:34:59;;;;;;;12.57;4.13;;;;;;;1.42;49.01;101352.13;4994096;28;20270;-62
2022/04/02 08:37:33;;;;;;;9.83;3.67;;;;;;;1.48;48.95;101347.41;4994210;28;20405;-60
2022/04/02 08:40:36;;;;;;;10.53;3.53;;;;;;;1.50;48.76;101345.53;4994547;28;20332;-62
2022/04/02 08:43:26;;;;;;;7.87;3.60;;;;;;;1.57;48.11;101345.16;4994485;28;20265;-62
2022/04/02 08:45:58;;;;;;;11.33;4.53;;;;;;;1.60;49.12;101335.31;4994556;28;20258;-62
2022/04/02 08:48:29;;;;;;;8.30;4.37;;;;;;;1.77;47.81;101350.91;4996423;28;20329;-61
2022/04/02 08:51:10;;;;;;;6.07;3.07;;;;;;;1.75;45.87;101341.44;4996710;28;20258;-62
2022/04/02 08:53:54;;;;;;;5.60;3.83;;;;;;;1.75;46.92;101341.44;4994797;28;20336;-61
2022/04/02 08:56:29;;;;;;;4.60;3.10;;;;;;;1.73;46.31;101331.00;4994402;28;20373;-64
2022/04/02 08:59:01;;;;;;;6.30;2.63;;;;;;;1.80;46.09;101331.50;4995155;28;20668;-62
2022/04/02 09:01:37;;;;;;;6.03;3.27;;;;;;;1.85;46.60;101340.78;4994186;28;20269;-61
2022/04/02 09:04:18;;;;;;;6.53;2.97;;;;;;;1.91;46.76;101329.06;4993962;28;20266;-63
2022/04/02 09:06:52;;;;;;;7.70;3.20;;;;;;;1.87;46.04;101324.94;4994030;28;20316;-59
2022/04/02 09:10:00;;;;;;;8.70;3.27;;;;;;;1.82;46.40;101324.38;4994230;28;20277;-63
2022/04/02 09:12:50;;;;;;;7.33;3.40;;;;;;;1.89;47.29;101315.19;4994168;28;20372;-61
2022/04/02 09:15:54;;;;;;;9.20;3.83;;;;;;;2.01;47.00;101322.28;4994186;28;20270;-62
2022/04/02 09:18:58;;;;;;;6.53;3.50;;;;;;;1.94;46.50;101313.13;4993503;28;20358;-60
2022/04/02 09:21:43;;;;;;;8.30;3.50;;;;;;;1.78;47.60;101312.38;4963240;28;20276;-62
2022/04/02 09:24:34;;;;;;;8.17;3.30;;;;;;;1.74;47.71;101310.88;4953584;28;20376;-62
2022/04/02 09:27:15;;;;;;;5.90;3.37;;;;;;;1.74;47.83;101303.84;4993730;28;20641;-61
2022/04/02 09:30:07;;;;;;;16.37;5.40;;;;;;;1.75;47.16;101299.44;4977114;28;20282;-62
2022/04/02 09:32:35;;;;;;;3.97;2.90;;;;;;;1.68;44.20;101300.72;4993405;28;20683;-63
2022/04/02 09:35:31;;;;;;;6.05;4.15;;;;;;;1.67;43.77;101288.53;4993115;28;20364;-62
2022/04/02 09:38:34;;;;;;;6.60;2.90;;;;;;;1.74;45.37;101289.88;4993010;28;20524;-60
2022/04/02 09:41:41;;;;;;;8.50;2.70;;;;;;;1.93;44.10;101295.66;4993143;28;20296;-59
2022/04/02 09:44:39;;;;;;;6.63;3.30;;;;;;;2.10;44.61;101266.56;4960731;28;20276;-59
2022/04/02 09:47:14;;;;;;;15.27;3.40;;;;;;;2.40;43.76;101294.50;4968607;28;20269;-62
2022/04/02 09:50:01;;;;;;;3.97;2.80;;;;;;;2.39;43.90;101291.03;4993027;28;20101;-62
2022/04/02 09:52:27;;;;;;;17.90;5.03;;;;;;;2.36;43.11;101287.75;4993110;28;20254;-65
2022/04/02 09:55:04;;;;;;;9.10;2.90;;;;;;;2.51;42.72;101292.00;4993237;28;20369;-60
2022/04/02 09:57:33;;;;;;;5.03;3.10;;;;;;;2.62;41.55;101284.31;4993454;28;20113;-61
2022/04/02 10:00:07;;;;;;;5.93;3.15;;;;;;;2.80;41.51;101287.50;4993398;28;20683;-62
2022/04/02 10:03:06;;;;;;;10.90;3.53;;;;;;;2.91;41.69;101278.94;4992796;28;20489;-60
2022/04/02 10:05:54;;;;;;;6.67;2.60;;;;;;;3.08;41.83;101276.00;4992953;28;20254;-61
2022/04/02 10:08:35;;;;;;;4.03;2.60;;;;;;;3.06;40.90;101275.28;4992085;28;20292;-60
2022/04/02 10:11:04;;;;;;;4.13;2.73;;;;;;;2.93;40.00;101266.53;4992562;28;20292;-62
2022/04/02 10:13:33;;;;;;;4.40;2.80;;;;;;;2.99;39.67;101260.84;4993694;28;20261;-62
2022/04/02 10:15:59;;;;;;;7.55;2.90;;;;;;;3.22;40.32;101262.78;4992639;28;20263;-61
2022/04/02 10:18:26;;;;;;;3.50;2.30;;;;;;;3.21;39.84;101255.84;4992906;28;20042;-64
2022/04/02 10:20:53;;;;;;;2.57;2.23;;;;;;;3.30;39.17;101264.91;4992622;28;20661;-64
2022/04/02 10:23:18;;;;;;;4.20;2.67;;;;;;;3.21;39.38;101255.00;4992740;28;20261;-61
2022/04/02 10:26:07;;;;;;;14.57;5.23;;;;;;;3.31;39.54;101259.53;4992628;28;20277;-62
2022/04/02 10:28:39;;;;;;;3.27;2.80;;;;;;;3.33;39.96;101249.75;4993939;28;20095;-63
2022/04/02 10:31:06;;;;;;;4.73;2.57;;;;;;;3.24;38.77;101246.91;4992457;28;20724;-62
2022/04/02 10:33:36;;;;;;;5.43;2.90;;;;;;;3.08;38.11;101249.69;4992060;28;20324;-62
2022/04/02 10:36:03;;;;;;;3.67;1.93;;;;;;;2.92;37.95;101249.06;4992084;28;20815;-63
2022/04/02 10:38:42;;;;;;;8.57;2.70;;;;;;;2.88;39.18;101237.03;4992209;28;20632;-61
2022/04/02 10:41:13;;;;;;;4.30;2.35;;;;;;;2.91;39.52;101242.94;4992235;28;20309;-63
2022/04/02 10:43:51;;;;;;;6.67;2.53;;;;;;;3.05;39.94;101239.38;4993131;28;20062;-59
2022/04/02 10:46:21;;;;;;;4.10;2.33;;;;;;;3.15;39.69;101242.22;4992062;28;20711;-62
2022/04/02 10:49:03;;;;;;;5.80;2.60;;;;;;;3.34;39.50;101230.38;4992026;28;20763;-61
2022/04/02 10:51:30;;;;;;;4.43;2.63;;;;;;;3.63;38.12;101224.88;4992616;28;20360;-63
2022/04/02 10:54:07;;;;;;;5.50;2.77;;;;;;;3.73;38.32;101221.47;4975316;28;20278;-62
2022/04/02 10:56:43;;;;;;;8.07;2.60;;;;;;;3.85;38.65;101218.97;4993953;28;20269;-63
2022/04/02 10:59:10;;;;;;;3.43;2.30;;;;;;;3.84;37.38;101222.53;4978914;28;20297;-63
2022/04/02 11:01:44;;;;;;;6.23;3.10;;;;;;;3.63;38.66;101198.53;4996295;28;20787;-61
2022/04/02 11:04:43;;;;;;;5.17;2.27;;;;;;;3.82;37.23;101216.53;4996416;28;20273;-62
2022/04/02 11:07:09;;;;;;;3.27;2.97;;;;;;;4.16;36.86;101221.09;4995975;28;20290;-61
2022/04/02 11:09:41;;;;;;;3.87;2.70;;;;;;;4.64;35.80;101216.69;4995978;28;20301;-63
2022/04/02 11:12:11;;;;;;;6.93;2.87;;;;;;;4.86;35.34;101207.16;4996310;28;20053;-63
2022/04/02 11:14:38;;;;;;;5.43;3.73;;;;;;;4.77;36.14;101202.56;4997910;28;20780;-61
2022/04/02 11:17:03;;;;;;;3.83;2.50;;;;;;;4.61;37.23;101202.84;4995761;28;20368;-63
2022/04/02 11:22:25;;;;;;;5.63;2.97;;;;;;;4.32;37.81;101203.19;4995740;28;20038;-61
2022/04/02 11:25:09;;;;;;;4.93;2.97;;;;;;;4.17;38.77;101193.78;4995577;28;20478;-61
2022/04/02 11:27:43;;;;;;;5.03;3.30;;;;;;;4.01;37.76;101187.91;4995510;28;20277;-62
2022/04/02 11:30:11;;;;;;;3.17;2.10;;;;;;;3.89;37.84;101183.53;4995772;28;20057;-60
2022/04/02 11:32:38;;;;;;;4.20;2.10;;;;;;;3.77;37.41;101189.69;4995444;28;20273;-62
2022/04/02 11:35:07;;;;;;;5.37;2.90;;;;;;;3.44;37.99;101183.16;4995519;28;20349;-62
2022/04/02 11:37:45;;;;;;;7.47;3.03;;;;;;;3.23;39.28;101174.16;4994982;28;20268;-63
2022/04/02 11:40:14;;;;;;;5.57;2.60;;;;;;;3.15;38.94;101190.44;4995760;28;20293;-65
2022/04/02 11:42:46;;;;;;;4.50;2.57;;;;;;;3.16;39.81;101178.97;4996131;28;20273;-62
2022/04/02 11:45:17;;;;;;;8.17;2.70;;;;;;;3.11;41.02;101186.34;4995827;28;20360;-63
2022/04/02 11:47:48;;;;;;;9.50;3.57;;;;;;;2.80;42.58;101161.25;4995347;28;20258;-63
2022/04/02 11:50:25;;;;;;;4.23;2.50;;;;;;;2.83;42.86;101191.78;4995096;28;20593;-61
2022/04/02 11:52:55;;;;;;;7.53;3.53;;;;;;;2.62;43.15;101160.72;4995266;28;20285;-60